Latest Weather Observations for Wattamolla

IDN60901

Issued at 5:31 pm EST Wednesday 27 July 2016 (issued every 10 minutes, with the page automatically refreshed every 10 minutes)

About weather observations | Map of Sydney area stations | Latest observations for Sydney area | Other Formats
Station Details ID: 066208 Name: WATTAMOLLA AWS Lat: -34.14 Lon: 151.12 Height: 44.0 m
Data from the previous 72 hours. | See also: Recent months for locations in New South Wales
Date/Time
EST
Temp
°C
App
Temp
°C
Dew
Point
°C
Rel
Hum
%
Delta-T
°C
Wind Press
QNH
hPa
Press
MSL
hPa
Rain since
9am
mm
Dir  Spd
km/h
Gust
km/h
Spd
kts
Gust
kts
27/05:30pm - - - - - WNW 20 30 11 16 - - -
27/05:00pm - - - - - WNW 22 35 12 19 - - -
27/04:30pm - - - - - WNW 22 37 12 20 - - -
27/04:00pm - - - - - WNW 28 41 15 22 - - -
27/03:49pm - - - - - W 28 46 15 25 - - -
27/03:30pm - - - - - W 24 35 13 19 - - -
27/01:35pm - - - - - W 28 50 15 27 - - -
27/01:30pm - - - - - W 22 41 12 22 - - -
27/01:00pm - - - - - W 32 50 17 27 - - -
27/12:49pm - - - - - W 30 48 16 26 - - -
27/12:30pm - - - - - W 26 44 14 24 - - -
27/12:00pm - - - - - W 26 41 14 22 - - -
27/11:30am - - - - - WSW 24 41 13 22 - - -
27/11:00am - - - - - W 20 37 11 20 - - -
27/10:37am - - - - - NW 30 50 16 27 - - -
27/10:30am - - - - - NW 26 50 14 27 - - -
27/10:00am - - - - - NW 20 35 11 19 - - -
27/09:30am - - - - - NW 17 26 9 14 - - -
27/09:00am - - - - - NW 20 30 11 16 - - -
27/08:30am - - - - - NW 28 41 15 22 - - -
27/08:00am - - - - - NW 26 41 14 22 - - -
27/07:30am - - - - - NW 24 35 13 19 - - -
27/07:00am - - - - - NW 15 26 8 14 - - -
27/06:30am - - - - - NW 9 13 5 7 - - -
27/06:00am - - - - - N 13 17 7 9 - - -
27/05:30am - - - - - N 17 24 9 13 - - -
27/05:00am - - - - - N 9 17 5 9 - - -
27/04:30am - - - - - NNE 6 11 3 6 - - -
27/04:00am - - - - - NNW 15 32 8 17 - - -
27/03:30am - - - - - NNW 11 17 6 9 - - -
27/03:00am - - - - - NNW 13 17 7 9 - - -
27/02:30am - - - - - N 17 19 9 10 - - -
27/02:00am - - - - - NW 17 22 9 12 - - -
27/01:30am - - - - - NW 22 26 12 14 - - -
27/01:00am - - - - - NW 13 19 7 10 - - -
27/12:30am - - - - - NNW 17 19 9 10 - - -
27/12:00am - - - - - NNW 15 19 8 10 - - -
 
Date/Time
EST
Temp
°C
App
Temp
°C
Dew
Point
°C
Rel
Hum
%
Delta-T
°C
Wind Press
QNH
hPa
Press
MSL
hPa
Rain since
9am
mm
Dir  Spd
km/h
Gust
km/h
Spd
kts
Gust
kts
26/11:30pm - - - - - NNW 17 19 9 10 - - -
26/11:00pm - - - - - NNW 15 15 8 8 - - -
26/10:30pm - - - - - NNW 11 13 6 7 - - -
26/10:00pm - - - - - NNW 9 13 5 7 - - -
26/09:30pm - - - - - NW 13 15 7 8 - - -
26/09:00pm - - - - - W 13 17 7 9 - - -
26/08:30pm - - - - - WNW 15 19 8 10 - - -
26/08:00pm - - - - - W 19 22 10 12 - - -
26/07:30pm - - - - - WNW 20 26 11 14 - - -
26/07:00pm - - - - - NW 17 19 9 10 - - -
26/06:30pm - - - - - WNW 15 19 8 10 - - -
26/06:00pm - - - - - WNW 15 20 8 11 - - -
26/05:30pm - - - - - NW 15 22 8 12 - - -
26/05:00pm - - - - - NNW 13 13 7 7 - - -
26/04:30pm - - - - - NNE 13 19 7 10 - - -
26/04:00pm - - - - - NNE 13 19 7 10 - - -
26/03:00pm - - - - - NE 19 - 10 - - - -
26/02:30pm - - - - - NE 19 30 10 16 - - -
26/02:00pm - - - - - NE 20 30 11 16 - - -
26/01:30pm - - - - - NE 20 30 11 16 - - -
26/01:00pm - - - - - - - - - - - - -
26/12:30pm - - - - - WNW 13 24 7 13 - - -
26/12:00pm - - - - - NW 13 20 7 11 - - -
26/11:30am - - - - - NW 15 30 8 16 - - -
26/11:00am - - - - - NW 11 15 6 8 - - -
26/10:30am - - - - - NNE 9 13 5 7 - - -
26/10:00am - - - - - NNE 9 13 5 7 - - -
26/09:30am - - - - - N 9 15 5 8 - - -
26/09:00am - - - - - N 13 17 7 9 - - -
26/08:30am - - - - - NNW 13 17 7 9 - - -
26/08:00am - - - - - NW 13 17 7 9 - - -
26/07:30am - - - - - NNW 17 19 9 10 - - -
26/07:00am - - - - - NNW 17 19 9 10 - - -
26/06:30am - - - - - NW 17 19 9 10 - - -
26/06:00am - - - - - NNW 17 19 9 10 - - -
26/05:30am - - - - - NNW 17 19 9 10 - - -
26/05:00am - - - - - NNW 15 17 8 9 - - -
26/04:30am - - - - - N 13 19 7 10 - - -
26/04:00am - - - - - N 17 20 9 11 - - -
26/03:30am - - - - - N 17 22 9 12 - - -
26/03:00am - - - - - N 17 20 9 11 - - -
26/02:30am - - - - - NNW 17 19 9 10 - - -
26/02:00am - - - - - NNW 15 17 8 9 - - -
26/01:30am - - - - - NNW 15 17 8 9 - - -
26/01:00am - - - - - N 13 17 7 9 - - -
26/12:30am - - - - - N 13 15 7 8 - - -
26/12:00am - - - - - N 17 19 9 10 - - -
 
Date/Time
EST
Temp
°C
App
Temp
°C
Dew
Point
°C
Rel
Hum
%
Delta-T
°C
Wind Press
QNH
hPa
Press
MSL
hPa
Rain since
9am
mm
Dir  Spd
km/h
Gust
km/h
Spd
kts
Gust
kts
25/11:30pm - - - - - NNW 15 17 8 9 - - -
25/11:00pm - - - - - NW 13 15 7 8 - - -
25/10:30pm - - - - - NW 13 15 7 8 - - -
25/10:00pm - - - - - NW 11 13 6 7 - - -
25/09:30pm - - - - - NW 11 13 6 7 - - -
25/09:00pm - - - - - NW 9 11 5 6 - - -
25/08:30pm - - - - - NNW 9 15 5 8 - - -
25/08:00pm - - - - - NNW 13 19 7 10 - - -
25/07:30pm - - - - - NW 13 19 7 10 - - -
25/07:00pm - - - - - NW 11 15 6 8 - - -
25/06:30pm - - - - - NW 9 15 5 8 - - -
25/06:00pm - - - - - NW 19 26 10 14 - - -
25/05:30pm - - - - - W 13 24 7 13 - - -
25/05:00pm - - - - - WNW 15 24 8 13 - - -
25/04:00pm - - - - - W 19 32 10 17 - - -
25/03:30pm - - - - - W 20 32 11 17 - - -
25/03:00pm - - - - - WNW 22 35 12 19 - - -
25/02:30pm - - - - - WNW 20 39 11 21 - - -
25/02:00pm - - - - - W 20 35 11 19 - - -
25/01:30pm - - - - - W 19 33 10 18 - - -
25/01:00pm - - - - - W 24 37 13 20 - - -
25/12:30pm - - - - - W 19 33 10 18 - - -
25/12:00pm - - - - - W 28 48 15 26 - - -
25/11:59am - - - - - W 28 48 15 26 - - -
25/11:30am - - - - - W 28 43 15 23 - - -
25/11:06am - - - - - W 28 48 15 26 - - -
25/11:00am - - - - - W 24 41 13 22 - - -
25/10:30am - - - - - W 19 33 10 18 - - -
25/09:30am - - - - - N 15 26 8 14 - - -
25/09:00am - - - - - NNW 19 32 10 17 - - -
25/08:30am - - - - - NNW 15 22 8 12 - - -
25/08:00am - - - - - N 7 9 4 5 - - -
25/07:30am - - - - - N 13 17 7 9 - - -
25/07:00am - - - - - NW 11 17 6 9 - - -
25/06:30am - - - - - NNW 9 13 5 7 - - -
25/06:00am - - - - - N 7 9 4 5 - - -
25/05:30am - - - - - NNW 9 11 5 6 - - -
25/05:00am - - - - - NNW 9 13 5 7 - - -
25/04:30am - - - - - NNW 11 17 6 9 - - -
25/04:00am - - - - - NNW 17 26 9 14 - - -
25/03:30am - - - - - NW 13 20 7 11 - - -
25/03:00am - - - - - NW 13 20 7 11 - - -
25/02:30am - - - - - NW 15 20 8 11 - - -
25/02:00am - - - - - NNW 13 19 7 10 - - -
25/01:30am - - - - - NNW 15 26 8 14 - - -
25/01:00am - - - - - NW 17 28 9 15 - - -
25/12:30am - - - - - NNW 11 15 6 8 - - -
25/12:00am - - - - - N 13 17 7 9 - - -
 
Date/Time
EST
Temp
°C
App
Temp
°C
Dew
Point
°C
Rel
Hum
%
Delta-T
°C
Wind Press
QNH
hPa
Press
MSL
hPa
Rain since
9am
mm
Dir  Spd
km/h
Gust
km/h
Spd
kts
Gust
kts
24/11:30pm - - - - - NNW 13 19 7 10 - - -
24/11:00pm - - - - - NNW 9 13 5 7 - - -
24/10:30pm - - - - - NNW 13 17 7 9 - - -
24/10:00pm - - - - - NNW 13 19 7 10 - - -
24/09:30pm - - - - - NNW 15 20 8 11 - - -
24/09:00pm - - - - - N 17 19 9 10 - - -
24/08:30pm - - - - - NNW 13 17 7 9 - - -
24/08:00pm - - - - - NNW 17 19 9 10 - - -
24/07:30pm - - - - - NNW 13 15 7 8 - - -
24/07:00pm - - - - - NNW 13 19 7 10 - - -
24/06:30pm - - - - - NNW 19 19 10 10 - - -
24/06:00pm - - - - - NW 15 15 8 8 - - -

Latest Capital City Observations: Canberra | Sydney | Melbourne | Brisbane | Adelaide | Perth | Hobart | Darwin

Other Formats:

Comma delimited format used in spreadsheet applications
http://www.bom.gov.au/fwo/IDN60901/IDN60901.95752.axf

JavaScript Object Notation format (JSON) in row-major order
http://www.bom.gov.au/fwo/IDN60901/IDN60901.95752.json